sensor_id;sensor_type;location;lat;lon;timestamp;P1;durP1;ratioP1;P2;durP2;ratioP2
26838;SDS011;40088;51.214;6.786;2024-03-25T00:02:19;10.50;;;3.78;;
26838;SDS011;40088;51.214;6.786;2024-03-25T00:12:20;9.13;;;3.50;;
26838;SDS011;40088;51.214;6.786;2024-03-25T00:22:20;10.68;;;3.05;;
26838;SDS011;40088;51.214;6.786;2024-03-25T00:32:22;12.35;;;3.20;;
26838;SDS011;40088;51.214;6.786;2024-03-25T00:42:22;8.77;;;3.30;;
26838;SDS011;40088;51.214;6.786;2024-03-25T00:52:22;10.15;;;3.15;;
26838;SDS011;40088;51.214;6.786;2024-03-25T01:02:22;11.32;;;3.47;;
26838;SDS011;40088;51.214;6.786;2024-03-25T01:12:22;13.45;;;4.20;;
26838;SDS011;40088;51.214;6.786;2024-03-25T01:22:23;9.40;;;3.22;;
26838;SDS011;40088;51.214;6.786;2024-03-25T01:32:23;10.40;;;3.83;;
26838;SDS011;40088;51.214;6.786;2024-03-25T01:42:24;10.70;;;3.75;;
26838;SDS011;40088;51.214;6.786;2024-03-25T01:52:24;10.23;;;3.50;;
26838;SDS011;40088;51.214;6.786;2024-03-25T02:02:26;13.43;;;3.72;;
26838;SDS011;40088;51.214;6.786;2024-03-25T02:12:26;8.60;;;3.38;;
26838;SDS011;40088;51.214;6.786;2024-03-25T02:22:26;11.15;;;3.55;;
26838;SDS011;40088;51.214;6.786;2024-03-25T02:32:27;10.68;;;3.70;;
26838;SDS011;40088;51.214;6.786;2024-03-25T02:42:29;7.93;;;3.22;;
26838;SDS011;40088;51.214;6.786;2024-03-25T02:52:29;9.43;;;3.53;;
26838;SDS011;40088;51.214;6.786;2024-03-25T03:02:30;10.98;;;3.97;;
26838;SDS011;40088;51.214;6.786;2024-03-25T03:12:31;13.00;;;3.80;;
26838;SDS011;40088;51.214;6.786;2024-03-25T03:22:31;9.57;;;3.92;;
26838;SDS011;40088;51.214;6.786;2024-03-25T03:32:32;14.67;;;4.10;;
26838;SDS011;40088;51.214;6.786;2024-03-25T03:42:32;12.00;;;3.33;;
26838;SDS011;40088;51.214;6.786;2024-03-25T03:52:32;12.20;;;3.80;;
26838;SDS011;40088;51.214;6.786;2024-03-25T04:02:33;9.30;;;3.15;;
26838;SDS011;40088;51.214;6.786;2024-03-25T04:12:33;10.82;;;3.38;;
26838;SDS011;40088;51.214;6.786;2024-03-25T04:22:33;10.43;;;3.85;;
26838;SDS011;40088;51.214;6.786;2024-03-25T04:32:34;9.07;;;3.55;;
26838;SDS011;40088;51.214;6.786;2024-03-25T04:42:35;11.15;;;3.80;;
26838;SDS011;40088;51.214;6.786;2024-03-25T04:52:36;10.75;;;3.97;;
26838;SDS011;40088;51.214;6.786;2024-03-25T05:02:37;11.27;;;3.95;;
26838;SDS011;40088;51.214;6.786;2024-03-25T05:12:38;11.32;;;3.90;;
26838;SDS011;40088;51.214;6.786;2024-03-25T05:22:38;8.73;;;3.22;;
26838;SDS011;40088;51.214;6.786;2024-03-25T05:32:39;10.60;;;3.83;;
26838;SDS011;40088;51.214;6.786;2024-03-25T05:42:39;11.75;;;3.90;;
26838;SDS011;40088;51.214;6.786;2024-03-25T05:52:39;11.13;;;3.33;;
26838;SDS011;40088;51.214;6.786;2024-03-25T06:02:39;14.00;;;4.70;;
26838;SDS011;40088;51.214;6.786;2024-03-25T06:12:40;10.02;;;3.63;;
26838;SDS011;40088;51.214;6.786;2024-03-25T06:22:40;9.65;;;4.15;;
26838;SDS011;40088;51.214;6.786;2024-03-25T06:32:41;8.43;;;3.15;;
26838;SDS011;40088;51.214;6.786;2024-03-25T06:43:00;9.38;;;3.58;;
26838;SDS011;40088;51.214;6.786;2024-03-25T06:53:00;10.63;;;3.67;;
26838;SDS011;40088;51.214;6.786;2024-03-25T07:03:00;8.60;;;3.65;;
26838;SDS011;40088;51.214;6.786;2024-03-25T07:13:01;6.57;;;3.55;;
26838;SDS011;40088;51.214;6.786;2024-03-25T07:23:02;11.82;;;3.65;;
26838;SDS011;40088;51.214;6.786;2024-03-25T07:33:03;8.82;;;3.40;;
26838;SDS011;40088;51.214;6.786;2024-03-25T07:43:04;14.25;;;4.75;;
26838;SDS011;40088;51.214;6.786;2024-03-25T07:53:05;8.77;;;4.40;;
26838;SDS011;40088;51.214;6.786;2024-03-25T08:03:05;7.90;;;3.30;;
26838;SDS011;40088;51.214;6.786;2024-03-25T08:13:06;10.73;;;4.40;;
26838;SDS011;40088;51.214;6.786;2024-03-25T08:23:06;22.33;;;5.43;;
26838;SDS011;40088;51.214;6.786;2024-03-25T08:33:06;17.20;;;4.05;;
26838;SDS011;40088;51.214;6.786;2024-03-25T08:43:06;17.58;;;4.82;;
26838;SDS011;40088;51.214;6.786;2024-03-25T08:53:07;15.70;;;4.10;;
26838;SDS011;40088;51.214;6.786;2024-03-25T09:03:08;15.38;;;4.15;;
26838;SDS011;40088;51.214;6.786;2024-03-25T09:13:08;13.07;;;4.20;;
26838;SDS011;40088;51.214;6.786;2024-03-25T09:23:09;15.23;;;4.88;;
26838;SDS011;40088;51.214;6.786;2024-03-25T09:33:10;13.85;;;4.63;;
26838;SDS011;40088;51.214;6.786;2024-03-25T09:43:12;9.95;;;4.32;;
26838;SDS011;40088;51.214;6.786;2024-03-25T09:53:20;8.88;;;3.70;;
26838;SDS011;40088;51.214;6.786;2024-03-25T10:03:21;9.10;;;3.65;;
26838;SDS011;40088;51.214;6.786;2024-03-25T10:13:22;9.53;;;4.00;;
26838;SDS011;40088;51.214;6.786;2024-03-25T10:23:23;11.40;;;4.18;;
26838;SDS011;40088;51.214;6.786;2024-03-25T10:33:25;14.73;;;4.33;;
26838;SDS011;40088;51.214;6.786;2024-03-25T10:43:25;8.85;;;4.55;;
26838;SDS011;40088;51.214;6.786;2024-03-25T10:53:30;10.63;;;4.68;;
26838;SDS011;40088;51.214;6.786;2024-03-25T11:03:32;11.45;;;4.80;;
26838;SDS011;40088;51.214;6.786;2024-03-25T11:13:33;9.88;;;4.88;;
26838;SDS011;40088;51.214;6.786;2024-03-25T11:23:43;8.75;;;4.20;;
26838;SDS011;40088;51.214;6.786;2024-03-25T11:33:44;8.15;;;4.40;;
26838;SDS011;40088;51.214;6.786;2024-03-25T11:43:45;11.18;;;4.80;;
26838;SDS011;40088;51.214;6.786;2024-03-25T11:53:45;7.30;;;3.88;;
26838;SDS011;40088;51.214;6.786;2024-03-25T12:03:46;7.72;;;3.53;;
26838;SDS011;40088;51.214;6.786;2024-03-25T12:13:46;9.93;;;4.22;;
26838;SDS011;40088;51.214;6.786;2024-03-25T12:23:47;6.55;;;4.13;;
26838;SDS011;40088;51.214;6.786;2024-03-25T12:33:47;12.88;;;4.70;;
26838;SDS011;40088;51.214;6.786;2024-03-25T12:43:49;9.70;;;4.43;;
26838;SDS011;40088;51.214;6.786;2024-03-25T12:53:50;7.83;;;3.80;;
26838;SDS011;40088;51.214;6.786;2024-03-25T13:03:51;7.18;;;3.17;;
26838;SDS011;40088;51.214;6.786;2024-03-25T13:13:51;5.80;;;3.35;;
26838;SDS011;40088;51.214;6.786;2024-03-25T13:23:52;8.07;;;3.40;;
26838;SDS011;40088;51.214;6.786;2024-03-25T13:33:52;8.15;;;4.25;;
26838;SDS011;40088;51.214;6.786;2024-03-25T13:43:52;5.72;;;3.50;;
26838;SDS011;40088;51.214;6.786;2024-03-25T13:53:52;5.50;;;2.95;;
26838;SDS011;40088;51.214;6.786;2024-03-25T14:03:53;5.05;;;3.22;;
26838;SDS011;40088;51.214;6.786;2024-03-25T14:13:53;4.70;;;3.08;;
26838;SDS011;40088;51.214;6.786;2024-03-25T14:23:53;4.65;;;2.67;;
26838;SDS011;40088;51.214;6.786;2024-03-25T14:33:53;6.72;;;3.47;;
26838;SDS011;40088;51.214;6.786;2024-03-25T14:43:54;5.82;;;3.10;;
26838;SDS011;40088;51.214;6.786;2024-03-25T14:53:54;7.28;;;4.45;;
26838;SDS011;40088;51.214;6.786;2024-03-25T15:03:54;6.70;;;3.10;;
26838;SDS011;40088;51.214;6.786;2024-03-25T15:13:55;8.43;;;3.72;;
26838;SDS011;40088;51.214;6.786;2024-03-25T15:23:55;6.57;;;3.70;;
26838;SDS011;40088;51.214;6.786;2024-03-25T15:33:56;8.73;;;3.30;;
26838;SDS011;40088;51.214;6.786;2024-03-25T15:43:56;8.10;;;3.85;;
26838;SDS011;40088;51.214;6.786;2024-03-25T15:53:56;3.83;;;2.40;;
26838;SDS011;40088;51.214;6.786;2024-03-25T16:03:56;4.32;;;2.53;;
26838;SDS011;40088;51.214;6.786;2024-03-25T16:13:57;6.50;;;3.35;;
26838;SDS011;40088;51.214;6.786;2024-03-25T16:23:58;4.85;;;3.28;;
26838;SDS011;40088;51.214;6.786;2024-03-25T16:33:58;4.82;;;2.90;;
26838;SDS011;40088;51.214;6.786;2024-03-25T16:43:59;4.82;;;2.53;;
26838;SDS011;40088;51.214;6.786;2024-03-25T16:53:59;5.75;;;3.42;;
26838;SDS011;40088;51.214;6.786;2024-03-25T17:03:59;4.40;;;2.42;;
26838;SDS011;40088;51.214;6.786;2024-03-25T17:14:01;6.50;;;4.30;;
26838;SDS011;40088;51.214;6.786;2024-03-25T17:24:02;5.35;;;3.30;;
26838;SDS011;40088;51.214;6.786;2024-03-25T17:34:03;4.00;;;3.10;;
26838;SDS011;40088;51.214;6.786;2024-03-25T17:44:04;2.85;;;1.98;;
26838;SDS011;40088;51.214;6.786;2024-03-25T17:54:05;6.05;;;3.30;;
26838;SDS011;40088;51.214;6.786;2024-03-25T18:04:05;6.60;;;3.70;;
26838;SDS011;40088;51.214;6.786;2024-03-25T18:14:06;6.03;;;4.30;;
26838;SDS011;40088;51.214;6.786;2024-03-25T18:24:06;5.95;;;3.35;;
26838;SDS011;40088;51.214;6.786;2024-03-25T18:34:06;4.75;;;2.83;;
26838;SDS011;40088;51.214;6.786;2024-03-25T18:44:07;5.95;;;3.25;;
26838;SDS011;40088;51.214;6.786;2024-03-25T18:54:07;5.43;;;2.80;;
26838;SDS011;40088;51.214;6.786;2024-03-25T19:04:08;5.28;;;2.85;;
26838;SDS011;40088;51.214;6.786;2024-03-25T19:14:08;6.93;;;3.53;;
26838;SDS011;40088;51.214;6.786;2024-03-25T19:24:09;4.70;;;3.45;;
26838;SDS011;40088;51.214;6.786;2024-03-25T19:34:09;7.05;;;4.43;;
26838;SDS011;40088;51.214;6.786;2024-03-25T19:44:09;5.07;;;3.20;;
26838;SDS011;40088;51.214;6.786;2024-03-25T19:54:09;5.90;;;3.45;;
26838;SDS011;40088;51.214;6.786;2024-03-25T20:04:10;5.65;;;3.30;;
26838;SDS011;40088;51.214;6.786;2024-03-25T20:14:10;6.10;;;4.28;;
26838;SDS011;40088;51.214;6.786;2024-03-25T20:24:16;7.88;;;4.13;;
26838;SDS011;40088;51.214;6.786;2024-03-25T20:34:16;6.82;;;4.28;;
26838;SDS011;40088;51.214;6.786;2024-03-25T20:44:17;5.88;;;4.05;;
26838;SDS011;40088;51.214;6.786;2024-03-25T20:54:17;7.28;;;4.13;;
26838;SDS011;40088;51.214;6.786;2024-03-25T21:04:17;5.63;;;3.67;;
26838;SDS011;40088;51.214;6.786;2024-03-25T21:14:18;4.20;;;2.92;;
26838;SDS011;40088;51.214;6.786;2024-03-25T21:24:18;7.43;;;3.50;;
26838;SDS011;40088;51.214;6.786;2024-03-25T21:34:18;4.95;;;2.88;;
26838;SDS011;40088;51.214;6.786;2024-03-25T21:44:18;4.50;;;3.05;;
26838;SDS011;40088;51.214;6.786;2024-03-25T21:54:19;6.00;;;3.35;;
26838;SDS011;40088;51.214;6.786;2024-03-25T22:04:19;6.32;;;3.65;;
26838;SDS011;40088;51.214;6.786;2024-03-25T22:14:19;5.15;;;2.80;;
26838;SDS011;40088;51.214;6.786;2024-03-25T22:24:19;5.95;;;2.80;;
26838;SDS011;40088;51.214;6.786;2024-03-25T22:34:20;6.13;;;3.40;;
26838;SDS011;40088;51.214;6.786;2024-03-25T22:44:20;6.20;;;3.53;;
26838;SDS011;40088;51.214;6.786;2024-03-25T22:54:20;6.85;;;3.15;;
26838;SDS011;40088;51.214;6.786;2024-03-25T23:04:20;6.65;;;3.08;;
26838;SDS011;40088;51.214;6.786;2024-03-25T23:14:21;7.07;;;3.45;;
26838;SDS011;40088;51.214;6.786;2024-03-25T23:24:21;5.60;;;2.50;;
26838;SDS011;40088;51.214;6.786;2024-03-25T23:34:21;5.00;;;2.85;;
26838;SDS011;40088;51.214;6.786;2024-03-25T23:44:21;5.18;;;3.20;;
26838;SDS011;40088;51.214;6.786;2024-03-25T23:54:22;5.68;;;2.53;;
